PWSweather.com
Personal Weather Stations
Station Observations
IPORTUGA89
BarosaPT

BarosaPT

Lat: 39.754028, Lon: -8.843

Elevation: 98

Station Type: Davis Vp2

High Low Average
Temperature 82.0°F27.8°C 58.1°F14.5°C 67.8°F19.9°C
Dew Point 63.0°F17.2°C 56.1°F13.4°C 60.0°F15.6°C
Winds 11.0 mph 17.7 kmh Calm Calm 3.0 mph S4.8 kmh S
Wind Gusts 19.0 mph30.6 kmh -- 7.0 mph11.3 kmh
Humidity 95% 47% 78%
Pressure 30.12 in1020.0 mb 29.94 in1013.9 mb -
Precipitation 0.00 in0.0 mm - -
Hour Temp Dew Point Humidity Winds Wind Gusts Pressure Precip Precip Rate Daily Precip Total
12:04 AM 62.6°F17.0°C 60.6°F15.9°C 93% 0.9 mph S1.4 kmh S 4.9 mph7.9 kmh 29.95 in1014.2 mb 0.00 in0.0 mm 0.00 in0.0 mm 0.00 in0.0 mm
12:14 AM 62.4°F16.9°C 60.4°F15.8°C 93% 2.0 mph S3.2 kmh S 6.0 mph9.7 kmh 29.95 in1014.2 mb 0.00 in0.0 mm 0.00 in0.0 mm 0.00 in0.0 mm
12:24 AM 62.2°F16.8°C 60.3°F15.7°C 93% 2.9 mph SE4.7 kmh SE 6.9 mph11.1 kmh 29.95 in1014.2 mb 0.00 in0.0 mm 0.00 in0.0 mm 0.00 in0.0 mm
12:34 AM 61.9°F16.6°C 59.9°F15.5°C 93% 2.9 mph SE4.7 kmh SE 6.9 mph11.1 kmh 29.95 in1014.2 mb 0.00 in0.0 mm 0.00 in0.0 mm 0.00 in0.0 mm
12:44 AM 62.2°F16.8°C 60.3°F15.7°C 93% 4.0 mph SE6.4 kmh SE 6.9 mph11.1 kmh 29.95 in1014.2 mb 0.00 in0.0 mm 0.00 in0.0 mm 0.00 in0.0 mm
12:54 AM 62.4°F16.9°C 60.6°F15.9°C 94% 2.0 mph SE3.2 kmh SE 4.9 mph7.9 kmh 29.95 in1014.2 mb 0.00 in0.0 mm 0.00 in0.0 mm 0.00 in0.0 mm
01:04 AM 62.4°F16.9°C 60.6°F15.9°C 94% 0.9 mph SSE1.4 kmh SSE 4.9 mph7.9 kmh 29.95 in1014.2 mb 0.00 in0.0 mm 0.00 in0.0 mm 0.00 in0.0 mm
01:14 AM 62.6°F17.0°C 60.8°F16.0°C 94% 0.9 mph SSE1.4 kmh SSE 4.0 mph6.4 kmh 29.95 in1014.2 mb 0.00 in0.0 mm 0.00 in0.0 mm 0.00 in0.0 mm
01:25 AM 62.8°F17.1°C 61.0°F16.1°C 94% 2.0 mph SSW3.2 kmh SSW 2.9 mph4.7 kmh 29.94 in1013.9 mb 0.00 in0.0 mm 0.00 in0.0 mm 0.00 in0.0 mm
01:35 AM 62.8°F17.1°C 61.0°F16.1°C 94% 2.0 mph SSE3.2 kmh SSE 4.9 mph7.9 kmh 29.94 in1013.9 mb 0.00 in0.0 mm 0.00 in0.0 mm 0.00 in0.0 mm
01:45 AM 62.8°F17.1°C 61.0°F16.1°C 94% 0.9 mph SE1.4 kmh SE 2.9 mph4.7 kmh 29.94 in1013.9 mb 0.00 in0.0 mm 0.00 in0.0 mm 0.00 in0.0 mm
01:55 AM 62.8°F17.1°C 61.0°F16.1°C 94% 2.0 mph SE3.2 kmh SE 4.0 mph6.4 kmh 29.94 in1013.9 mb 0.00 in0.0 mm 0.00 in0.0 mm 0.00 in0.0 mm
02:05 AM 62.6°F17.0°C 60.8°F16.0°C 94% 2.0 mph SE3.2 kmh SE 4.0 mph6.4 kmh 29.94 in1013.9 mb 0.00 in0.0 mm 0.00 in0.0 mm 0.00 in0.0 mm
02:15 AM 62.4°F16.9°C 60.6°F15.9°C 94% 0.9 mph S1.4 kmh S 2.0 mph3.2 kmh 29.94 in1013.9 mb 0.00 in0.0 mm 0.00 in0.0 mm 0.00 in0.0 mm
02:25 AM 62.2°F16.8°C 60.4°F15.8°C 94% 0.9 mph S1.4 kmh S 2.9 mph4.7 kmh 29.94 in1013.9 mb 0.00 in0.0 mm 0.00 in0.0 mm 0.00 in0.0 mm
02:35 AM 62.2°F16.8°C 60.4°F15.8°C 94% 2.0 mph SE3.2 kmh SE 4.9 mph7.9 kmh 29.94 in1013.9 mb 0.00 in0.0 mm 0.00 in0.0 mm 0.00 in0.0 mm
02:45 AM 62.2°F16.8°C 60.4°F15.8°C 94% 2.9 mph SSE4.7 kmh SSE 6.0 mph9.7 kmh 29.95 in1014.2 mb 0.00 in0.0 mm 0.00 in0.0 mm 0.00 in0.0 mm
02:56 AM 62.1°F16.7°C 60.3°F15.7°C 94% 2.9 mph S4.7 kmh S 4.9 mph7.9 kmh 29.95 in1014.2 mb 0.00 in0.0 mm 0.00 in0.0 mm 0.00 in0.0 mm
03:06 AM 61.9°F16.6°C 60.1°F15.6°C 94% 2.9 mph S4.7 kmh S 4.9 mph7.9 kmh 29.95 in1014.2 mb 0.00 in0.0 mm 0.00 in0.0 mm 0.00 in0.0 mm
03:16 AM 61.9°F16.6°C 60.1°F15.6°C 94% 2.0 mph ESE3.2 kmh ESE 6.9 mph11.1 kmh 29.95 in1014.2 mb 0.00 in0.0 mm 0.00 in0.0 mm 0.00 in0.0 mm
03:26 AM 61.5°F16.4°C 59.7°F15.4°C 94% 4.0 mph SE6.4 kmh SE 8.1 mph13.0 kmh 29.95 in1014.2 mb 0.00 in0.0 mm 0.00 in0.0 mm 0.00 in0.0 mm
03:36 AM 61.5°F16.4°C 59.7°F15.4°C 94% 2.9 mph S4.7 kmh S 4.9 mph7.9 kmh 29.95 in1014.2 mb 0.00 in0.0 mm 0.00 in0.0 mm 0.00 in0.0 mm
03:46 AM 61.5°F16.4°C 59.7°F15.4°C 94% 2.9 mph SSE4.7 kmh SSE 6.0 mph9.7 kmh 29.95 in1014.2 mb 0.00 in0.0 mm 0.00 in0.0 mm 0.00 in0.0 mm
03:56 AM 61.5°F16.4°C 59.7°F15.4°C 94% 2.9 mph SE4.7 kmh SE 6.9 mph11.1 kmh 29.96 in1014.6 mb 0.00 in0.0 mm 0.00 in0.0 mm 0.00 in0.0 mm
04:06 AM 61.5°F16.4°C 59.7°F15.4°C 94% 2.0 mph ESE3.2 kmh ESE 4.0 mph6.4 kmh 29.96 in1014.6 mb 0.00 in0.0 mm 0.00 in0.0 mm 0.00 in0.0 mm
04:16 AM 61.3°F16.3°C 59.5°F15.3°C 94% 2.9 mph SSE4.7 kmh SSE 6.0 mph9.7 kmh 29.96 in1014.6 mb 0.00 in0.0 mm 0.00 in0.0 mm 0.00 in0.0 mm
04:26 AM 61.3°F16.3°C 59.5°F15.3°C 94% 2.9 mph SE4.7 kmh SE 4.9 mph7.9 kmh 29.95 in1014.2 mb 0.00 in0.0 mm 0.00 in0.0 mm 0.00 in0.0 mm
04:36 AM 61.2°F16.2°C 59.4°F15.2°C 94% 4.0 mph ESE6.4 kmh ESE 6.9 mph11.1 kmh 29.95 in1014.2 mb 0.00 in0.0 mm 0.00 in0.0 mm 0.00 in0.0 mm
04:46 AM 61.0°F16.1°C 59.2°F15.1°C 94% 0.9 mph ESE1.4 kmh ESE 4.0 mph6.4 kmh 29.95 in1014.2 mb 0.00 in0.0 mm 0.00 in0.0 mm 0.00 in0.0 mm
04:56 AM 60.6°F15.9°C 58.8°F14.9°C 94% 0.9 mph E1.4 kmh E 2.9 mph4.7 kmh 29.96 in1014.6 mb 0.00 in0.0 mm 0.00 in0.0 mm 0.00 in0.0 mm
05:06 AM 60.4°F15.8°C 58.6°F14.8°C 94% 2.0 mph E3.2 kmh E 4.0 mph6.4 kmh 29.96 in1014.6 mb 0.00 in0.0 mm 0.00 in0.0 mm 0.00 in0.0 mm
05:17 AM 60.1°F15.6°C 58.3°F14.6°C 94% 2.0 mph E3.2 kmh E 2.9 mph4.7 kmh 29.96 in1014.6 mb 0.00 in0.0 mm 0.00 in0.0 mm 0.00 in0.0 mm
05:27 AM 59.5°F15.3°C 57.7°F14.3°C 94% 2.0 mph SSE3.2 kmh SSE 4.0 mph6.4 kmh 29.97 in1014.9 mb 0.00 in0.0 mm 0.00 in0.0 mm 0.00 in0.0 mm
05:37 AM 59.2°F15.1°C 57.4°F14.1°C 94% 0.9 mph SSE1.4 kmh SSE 2.0 mph3.2 kmh 29.97 in1014.9 mb 0.00 in0.0 mm 0.00 in0.0 mm 0.00 in0.0 mm
05:47 AM 58.5°F14.7°C 56.7°F13.7°C 94% Calm Calm -- 29.96 in1014.6 mb 0.00 in0.0 mm 0.00 in0.0 mm 0.00 in0.0 mm
05:57 AM 58.1°F14.5°C 56.3°F13.5°C 94% Calm Calm 2.0 mph3.2 kmh 29.97 in1014.9 mb 0.00 in0.0 mm 0.00 in0.0 mm 0.00 in0.0 mm
06:07 AM 58.5°F14.7°C 57.0°F13.9°C 95% 0.9 mph ESE1.4 kmh ESE 2.9 mph4.7 kmh 29.97 in1014.9 mb 0.00 in0.0 mm 0.00 in0.0 mm 0.00 in0.0 mm
06:17 AM 58.8°F14.9°C 57.4°F14.1°C 95% 0.9 mph ESE1.4 kmh ESE 2.9 mph4.7 kmh 29.97 in1014.9 mb 0.00 in0.0 mm 0.00 in0.0 mm 0.00 in0.0 mm
06:27 AM 58.8°F14.9°C 57.4°F14.1°C 95% 2.9 mph SE4.7 kmh SE 6.0 mph9.7 kmh 29.98 in1015.2 mb 0.00 in0.0 mm 0.00 in0.0 mm 0.00 in0.0 mm
06:37 AM 59.4°F15.2°C 57.9°F14.4°C 95% 2.0 mph E3.2 kmh E 4.9 mph7.9 kmh 29.98 in1015.2 mb 0.00 in0.0 mm 0.00 in0.0 mm 0.00 in0.0 mm
06:47 AM 59.7°F15.4°C 58.3°F14.6°C 95% 2.0 mph E3.2 kmh E 2.9 mph4.7 kmh 29.98 in1015.2 mb 0.00 in0.0 mm 0.00 in0.0 mm 0.00 in0.0 mm
06:57 AM 60.1°F15.6°C 58.6°F14.8°C 95% 0.9 mph E1.4 kmh E 2.9 mph4.7 kmh 29.99 in1015.6 mb 0.00 in0.0 mm 0.00 in0.0 mm 0.00 in0.0 mm
07:07 AM 60.4°F15.8°C 59.0°F15.0°C 95% 2.0 mph S3.2 kmh S 6.0 mph9.7 kmh 29.99 in1015.6 mb 0.00 in0.0 mm 0.00 in0.0 mm 0.00 in0.0 mm
07:17 AM 61.0°F16.1°C 59.5°F15.3°C 95% 0.9 mph SSE1.4 kmh SSE 6.0 mph9.7 kmh 30.00 in1015.9 mb 0.00 in0.0 mm 0.00 in0.0 mm 0.00 in0.0 mm
07:27 AM 61.3°F16.3°C 59.9°F15.5°C 95% 0.9 mph ESE1.4 kmh ESE 4.0 mph6.4 kmh 30.01 in1016.3 mb 0.00 in0.0 mm 0.00 in0.0 mm 0.00 in0.0 mm
07:37 AM 61.7°F16.5°C 60.3°F15.7°C 95% 2.0 mph ESE3.2 kmh ESE 6.0 mph9.7 kmh 30.01 in1016.3 mb 0.00 in0.0 mm 0.00 in0.0 mm 0.00 in0.0 mm
07:47 AM 62.1°F16.7°C 60.6°F15.9°C 95% 2.9 mph SE4.7 kmh SE 6.0 mph9.7 kmh 30.01 in1016.3 mb 0.00 in0.0 mm 0.00 in0.0 mm 0.00 in0.0 mm
07:58 AM 62.4°F16.9°C 60.6°F15.9°C 94% 2.9 mph SE4.7 kmh SE 6.0 mph9.7 kmh 30.01 in1016.3 mb 0.00 in0.0 mm 0.00 in0.0 mm 0.00 in0.0 mm
08:08 AM 63.0°F17.2°C 61.2°F16.2°C 94% 2.9 mph E4.7 kmh E 6.9 mph11.1 kmh 30.01 in1016.3 mb 0.00 in0.0 mm 0.00 in0.0 mm 0.00 in0.0 mm
08:18 AM 63.7°F17.6°C 61.7°F16.5°C 93% 2.0 mph ESE3.2 kmh ESE 8.1 mph13.0 kmh 30.02 in1016.6 mb 0.00 in0.0 mm 0.00 in0.0 mm 0.00 in0.0 mm
08:28 AM 64.6°F18.1°C 62.2°F16.8°C 92% 6.0 mph SE9.7 kmh SE 10.1 mph16.3 kmh 30.01 in1016.3 mb 0.00 in0.0 mm 0.00 in0.0 mm 0.00 in0.0 mm
08:38 AM 65.1°F18.4°C 61.9°F16.6°C 89% 8.9 mph SE14.3 kmh SE 14.1 mph22.7 kmh 30.02 in1016.6 mb 0.00 in0.0 mm 0.00 in0.0 mm 0.00 in0.0 mm
08:48 AM 65.7°F18.7°C 61.7°F16.5°C 87% 8.9 mph SE14.3 kmh SE 15.0 mph24.1 kmh 30.02 in1016.6 mb 0.00 in0.0 mm 0.00 in0.0 mm 0.00 in0.0 mm
08:58 AM 66.6°F19.2°C 61.5°F16.4°C 84% 8.9 mph ESE14.3 kmh ESE 13.0 mph20.9 kmh 30.03 in1016.9 mb 0.00 in0.0 mm 0.00 in0.0 mm 0.00 in0.0 mm
09:08 AM 67.6°F19.8°C 61.9°F16.6°C 82% 6.9 mph SE11.1 kmh SE 11.0 mph17.7 kmh 30.03 in1016.9 mb 0.00 in0.0 mm 0.00 in0.0 mm 0.00 in0.0 mm
09:18 AM 67.5°F19.7°C 61.3°F16.3°C 81% 6.9 mph SSE11.1 kmh SSE 13.0 mph20.9 kmh 30.03 in1016.9 mb 0.00 in0.0 mm 0.00 in0.0 mm 0.00 in0.0 mm
09:28 AM 68.2°F20.1°C 61.7°F16.5°C 80% 8.1 mph S13.0 kmh S 14.1 mph22.7 kmh 30.03 in1016.9 mb 0.00 in0.0 mm 0.00 in0.0 mm 0.00 in0.0 mm
09:38 AM 69.8°F21.0°C 61.9°F16.6°C 76% 8.9 mph SE14.3 kmh SE 17.9 mph28.8 kmh 30.03 in1016.9 mb 0.00 in0.0 mm 0.00 in0.0 mm 0.00 in0.0 mm
09:48 AM 70.3°F21.3°C 61.7°F16.5°C 74% 11.0 mph ESE17.7 kmh ESE 19.0 mph30.6 kmh 30.03 in1016.9 mb 0.00 in0.0 mm 0.00 in0.0 mm 0.00 in0.0 mm
09:58 AM 70.3°F21.3°C 62.1°F16.7°C 75% 10.1 mph E16.3 kmh E 15.0 mph24.1 kmh 30.03 in1016.9 mb 0.00 in0.0 mm 0.00 in0.0 mm 0.00 in0.0 mm
10:08 AM 71.4°F21.9°C 62.2°F16.8°C 73% 8.9 mph ESE14.3 kmh ESE 14.1 mph22.7 kmh 30.03 in1016.9 mb 0.00 in0.0 mm 0.00 in0.0 mm 0.00 in0.0 mm
10:18 AM 72.0°F22.2°C 62.8°F17.1°C 73% 8.1 mph E13.0 kmh E 13.0 mph20.9 kmh 30.03 in1016.9 mb 0.00 in0.0 mm 0.00 in0.0 mm 0.00 in0.0 mm
10:28 AM 72.5°F22.5°C 62.2°F16.8°C 70% 8.1 mph NE13.0 kmh NE 12.1 mph19.5 kmh 30.03 in1016.9 mb 0.00 in0.0 mm 0.00 in0.0 mm 0.00 in0.0 mm
10:38 AM 72.7°F22.6°C 62.2°F16.8°C 70% 8.1 mph ESE13.0 kmh ESE 12.1 mph19.5 kmh 30.03 in1016.9 mb 0.00 in0.0 mm 0.00 in0.0 mm 0.00 in0.0 mm
10:48 AM 73.8°F23.2°C 62.1°F16.7°C 67% 8.1 mph E13.0 kmh E 15.0 mph24.1 kmh 30.04 in1017.3 mb 0.00 in0.0 mm 0.00 in0.0 mm 0.00 in0.0 mm
10:58 AM 74.1°F23.4°C 62.1°F16.7°C 66% 6.0 mph E9.7 kmh E 12.1 mph19.5 kmh 30.03 in1016.9 mb 0.00 in0.0 mm 0.00 in0.0 mm 0.00 in0.0 mm
11:08 AM 74.3°F23.5°C 61.7°F16.5°C 65% 8.1 mph E13.0 kmh E 13.0 mph20.9 kmh 30.04 in1017.3 mb 0.00 in0.0 mm 0.00 in0.0 mm 0.00 in0.0 mm
11:18 AM 74.5°F23.6°C 61.9°F16.6°C 65% 6.9 mph E11.1 kmh E 12.1 mph19.5 kmh 30.04 in1017.3 mb 0.00 in0.0 mm 0.00 in0.0 mm 0.00 in0.0 mm
11:28 AM 75.4°F24.1°C 61.9°F16.6°C 63% 4.9 mph E7.9 kmh E 10.1 mph16.3 kmh 30.03 in1016.9 mb 0.00 in0.0 mm 0.00 in0.0 mm 0.00 in0.0 mm
11:38 AM 75.4°F24.1°C 61.5°F16.4°C 62% 6.9 mph SE11.1 kmh SE 13.0 mph20.9 kmh 30.03 in1016.9 mb 0.00 in0.0 mm 0.00 in0.0 mm 0.00 in0.0 mm
11:48 AM 75.9°F24.4°C 61.5°F16.4°C 61% 2.9 mph E4.7 kmh E 8.9 mph14.3 kmh 30.03 in1016.9 mb 0.00 in0.0 mm 0.00 in0.0 mm 0.00 in0.0 mm
11:58 AM 77.0°F25.0°C 61.2°F16.2°C 58% 6.9 mph E11.1 kmh E 13.0 mph20.9 kmh 30.03 in1016.9 mb 0.00 in0.0 mm 0.00 in0.0 mm 0.00 in0.0 mm
12:08 PM 78.1°F25.6°C 60.6°F15.9°C 55% 4.9 mph SSW7.9 kmh SSW 12.1 mph19.5 kmh 30.03 in1016.9 mb 0.00 in0.0 mm 0.00 in0.0 mm 0.00 in0.0 mm
12:18 PM 79.0°F26.1°C 60.4°F15.8°C 53% 6.9 mph WSW11.1 kmh WSW 13.0 mph20.9 kmh 30.03 in1016.9 mb 0.00 in0.0 mm 0.00 in0.0 mm 0.00 in0.0 mm
12:28 PM 78.1°F25.6°C 60.1°F15.6°C 54% 8.1 mph S13.0 kmh S 16.1 mph25.9 kmh 30.03 in1016.9 mb 0.00 in0.0 mm 0.00 in0.0 mm 0.00 in0.0 mm
12:38 PM 77.0°F25.0°C 60.6°F15.9°C 57% 6.0 mph S9.7 kmh S 13.0 mph20.9 kmh 30.02 in1016.6 mb 0.00 in0.0 mm 0.00 in0.0 mm 0.00 in0.0 mm
12:48 PM 77.4°F25.2°C 60.4°F15.8°C 56% 4.0 mph SE6.4 kmh SE 8.9 mph14.3 kmh 30.02 in1016.6 mb 0.00 in0.0 mm 0.00 in0.0 mm 0.00 in0.0 mm
12:58 PM 76.8°F24.9°C 60.4°F15.8°C 57% 4.9 mph E7.9 kmh E 11.0 mph17.7 kmh 30.02 in1016.6 mb 0.00 in0.0 mm 0.00 in0.0 mm 0.00 in0.0 mm
01:08 PM 76.5°F24.7°C 60.1°F15.6°C 57% 2.9 mph SE4.7 kmh SE 6.9 mph11.1 kmh 30.02 in1016.6 mb 0.00 in0.0 mm 0.00 in0.0 mm 0.00 in0.0 mm
01:18 PM 76.3°F24.6°C 60.4°F15.8°C 58% 2.9 mph NE4.7 kmh NE 8.9 mph14.3 kmh 30.02 in1016.6 mb 0.00 in0.0 mm 0.00 in0.0 mm 0.00 in0.0 mm
01:28 PM 76.6°F24.8°C 61.2°F16.2°C 59% 2.9 mph NE4.7 kmh NE 8.9 mph14.3 kmh 30.01 in1016.3 mb 0.00 in0.0 mm 0.00 in0.0 mm 0.00 in0.0 mm
01:38 PM 77.2°F25.1°C 60.8°F16.0°C 57% 2.9 mph E4.7 kmh E 8.1 mph13.0 kmh 30.01 in1016.3 mb 0.00 in0.0 mm 0.00 in0.0 mm 0.00 in0.0 mm
01:48 PM 77.7°F25.4°C 61.3°F16.3°C 57% 2.9 mph SE4.7 kmh SE 8.1 mph13.0 kmh 30.01 in1016.3 mb 0.00 in0.0 mm 0.00 in0.0 mm 0.00 in0.0 mm
01:58 PM 77.7°F25.4°C 61.3°F16.3°C 57% 2.0 mph ENE3.2 kmh ENE 4.9 mph7.9 kmh 30.01 in1016.3 mb 0.00 in0.0 mm 0.00 in0.0 mm 0.00 in0.0 mm
02:08 PM 79.0°F26.1°C 61.9°F16.6°C 56% 2.9 mph WNW4.7 kmh WNW 6.0 mph9.7 kmh 30.00 in1015.9 mb 0.00 in0.0 mm 0.00 in0.0 mm 0.00 in0.0 mm
02:18 PM 80.1°F26.7°C 63.0°F17.2°C 56% 2.0 mph ESE3.2 kmh ESE 4.0 mph6.4 kmh 30.00 in1015.9 mb 0.00 in0.0 mm 0.00 in0.0 mm 0.00 in0.0 mm
02:28 PM 79.3°F26.3°C 60.3°F15.7°C 52% 2.9 mph NE4.7 kmh NE 6.0 mph9.7 kmh 29.99 in1015.6 mb 0.00 in0.0 mm 0.00 in0.0 mm 0.00 in0.0 mm
02:38 PM 79.2°F26.2°C 60.1°F15.6°C 52% 2.0 mph E3.2 kmh E 4.0 mph6.4 kmh 29.99 in1015.6 mb 0.00 in0.0 mm 0.00 in0.0 mm 0.00 in0.0 mm
02:48 PM 79.2°F26.2°C 61.2°F16.2°C 54% 2.0 mph NW3.2 kmh NW 4.0 mph6.4 kmh 29.99 in1015.6 mb 0.00 in0.0 mm 0.00 in0.0 mm 0.00 in0.0 mm
02:58 PM 80.1°F26.7°C 60.8°F16.0°C 52% 2.9 mph N4.7 kmh N 8.1 mph13.0 kmh 29.99 in1015.6 mb 0.00 in0.0 mm 0.00 in0.0 mm 0.00 in0.0 mm
03:08 PM 80.6°F27.0°C 60.8°F16.0°C 51% 2.9 mph NE4.7 kmh NE 6.0 mph9.7 kmh 29.99 in1015.6 mb 0.00 in0.0 mm 0.00 in0.0 mm 0.00 in0.0 mm
03:18 PM 81.0°F27.2°C 60.6°F15.9°C 50% 4.0 mph NNW6.4 kmh NNW 8.1 mph13.0 kmh 29.98 in1015.2 mb 0.00 in0.0 mm 0.00 in0.0 mm 0.00 in0.0 mm
03:28 PM 81.0°F27.2°C 60.1°F15.6°C 49% 2.0 mph NE3.2 kmh NE 4.9 mph7.9 kmh 29.98 in1015.2 mb 0.00 in0.0 mm 0.00 in0.0 mm 0.00 in0.0 mm
03:38 PM 80.8°F27.1°C 59.2°F15.1°C 48% 2.9 mph N4.7 kmh N 10.1 mph16.3 kmh 29.98 in1015.2 mb 0.00 in0.0 mm 0.00 in0.0 mm 0.00 in0.0 mm
03:48 PM 82.0°F27.8°C 59.9°F15.5°C 47% 4.9 mph NW7.9 kmh NW 16.1 mph25.9 kmh 29.99 in1015.6 mb 0.00 in0.0 mm 0.00 in0.0 mm 0.00 in0.0 mm
03:58 PM 81.9°F27.7°C 59.7°F15.4°C 47% 6.9 mph WSW11.1 kmh WSW 14.1 mph22.7 kmh 30.00 in1015.9 mb 0.00 in0.0 mm 0.00 in0.0 mm 0.00 in0.0 mm
04:08 PM 80.8°F27.1°C 59.9°F15.5°C 49% 6.9 mph W11.1 kmh W 14.1 mph22.7 kmh 30.01 in1016.3 mb 0.00 in0.0 mm 0.00 in0.0 mm 0.00 in0.0 mm
04:18 PM 80.1°F26.7°C 60.3°F15.7°C 51% 8.1 mph WNW13.0 kmh WNW 12.1 mph19.5 kmh 30.01 in1016.3 mb 0.00 in0.0 mm 0.00 in0.0 mm 0.00 in0.0 mm
04:28 PM 80.1°F26.7°C 60.8°F16.0°C 52% 8.1 mph W13.0 kmh W 13.0 mph20.9 kmh 30.01 in1016.3 mb 0.00 in0.0 mm 0.00 in0.0 mm 0.00 in0.0 mm
04:38 PM 79.2°F26.2°C 60.6°F15.9°C 53% 8.1 mph NW13.0 kmh NW 14.1 mph22.7 kmh 30.01 in1016.3 mb 0.00 in0.0 mm 0.00 in0.0 mm 0.00 in0.0 mm
04:48 PM 78.6°F25.9°C 61.2°F16.2°C 55% 6.9 mph NW11.1 kmh NW 14.1 mph22.7 kmh 30.02 in1016.6 mb 0.00 in0.0 mm 0.00 in0.0 mm 0.00 in0.0 mm
04:58 PM 78.6°F25.9°C 61.2°F16.2°C 55% 6.0 mph W9.7 kmh W 12.1 mph19.5 kmh 30.02 in1016.6 mb 0.00 in0.0 mm 0.00 in0.0 mm 0.00 in0.0 mm
05:08 PM 78.6°F25.9°C 60.6°F15.9°C 54% 6.0 mph WNW9.7 kmh WNW 12.1 mph19.5 kmh 30.03 in1016.9 mb 0.00 in0.0 mm 0.00 in0.0 mm 0.00 in0.0 mm
05:18 PM 78.6°F25.9°C 60.6°F15.9°C 54% 4.9 mph NW7.9 kmh NW 11.0 mph17.7 kmh 30.03 in1016.9 mb 0.00 in0.0 mm 0.00 in0.0 mm 0.00 in0.0 mm
05:28 PM 77.7°F25.4°C 60.3°F15.7°C 55% 4.9 mph NW7.9 kmh NW 10.1 mph16.3 kmh 30.04 in1017.3 mb 0.00 in0.0 mm 0.00 in0.0 mm 0.00 in0.0 mm
05:38 PM 76.3°F24.6°C 59.9°F15.5°C 57% 6.0 mph WSW9.7 kmh WSW 13.0 mph20.9 kmh 30.04 in1017.3 mb 0.00 in0.0 mm 0.00 in0.0 mm 0.00 in0.0 mm
05:48 PM 74.8°F23.8°C 59.5°F15.3°C 59% 6.0 mph NNW9.7 kmh NNW 11.0 mph17.7 kmh 30.04 in1017.3 mb 0.00 in0.0 mm 0.00 in0.0 mm 0.00 in0.0 mm
05:58 PM 74.1°F23.4°C 60.3°F15.7°C 62% 6.9 mph W11.1 kmh W 11.0 mph17.7 kmh 30.04 in1017.3 mb 0.00 in0.0 mm 0.00 in0.0 mm 0.00 in0.0 mm
06:08 PM 73.2°F22.9°C 60.3°F15.7°C 64% 4.0 mph WSW6.4 kmh WSW 8.1 mph13.0 kmh 30.04 in1017.3 mb 0.00 in0.0 mm 0.00 in0.0 mm 0.00 in0.0 mm
06:18 PM 72.3°F22.4°C 61.2°F16.2°C 68% 4.0 mph W6.4 kmh W 8.9 mph14.3 kmh 30.04 in1017.3 mb 0.00 in0.0 mm 0.00 in0.0 mm 0.00 in0.0 mm
06:28 PM 71.4°F21.9°C 61.2°F16.2°C 70% 4.0 mph WSW6.4 kmh WSW 8.1 mph13.0 kmh 30.05 in1017.6 mb 0.00 in0.0 mm 0.00 in0.0 mm 0.00 in0.0 mm
06:38 PM 70.9°F21.6°C 61.0°F16.1°C 71% 4.0 mph WNW6.4 kmh WNW 10.1 mph16.3 kmh 30.05 in1017.6 mb 0.00 in0.0 mm 0.00 in0.0 mm 0.00 in0.0 mm
06:49 PM 70.3°F21.3°C 60.8°F16.0°C 72% 2.9 mph WSW4.7 kmh WSW 6.9 mph11.1 kmh 30.05 in1017.6 mb 0.00 in0.0 mm 0.00 in0.0 mm 0.00 in0.0 mm
06:59 PM 69.6°F20.9°C 60.6°F15.9°C 73% 2.0 mph WSW3.2 kmh WSW 6.0 mph9.7 kmh 30.06 in1017.9 mb 0.00 in0.0 mm 0.00 in0.0 mm 0.00 in0.0 mm
07:09 PM 69.1°F20.6°C 60.4°F15.8°C 74% 4.0 mph WNW6.4 kmh WNW 8.1 mph13.0 kmh 30.06 in1017.9 mb 0.00 in0.0 mm 0.00 in0.0 mm 0.00 in0.0 mm
07:19 PM 68.5°F20.3°C 60.3°F15.7°C 75% 2.9 mph WNW4.7 kmh WNW 6.0 mph9.7 kmh 30.06 in1017.9 mb 0.00 in0.0 mm 0.00 in0.0 mm 0.00 in0.0 mm
07:29 PM 67.8°F19.9°C 60.3°F15.7°C 77% 2.0 mph WSW3.2 kmh WSW 4.0 mph6.4 kmh 30.07 in1018.3 mb 0.00 in0.0 mm 0.00 in0.0 mm 0.00 in0.0 mm
07:39 PM 66.9°F19.4°C 60.3°F15.7°C 79% 2.0 mph WSW3.2 kmh WSW 6.0 mph9.7 kmh 30.07 in1018.3 mb 0.00 in0.0 mm 0.00 in0.0 mm 0.00 in0.0 mm
07:49 PM 66.6°F19.2°C 60.3°F15.7°C 80% 2.0 mph WSW3.2 kmh WSW 4.9 mph7.9 kmh 30.08 in1018.6 mb 0.00 in0.0 mm 0.00 in0.0 mm 0.00 in0.0 mm
07:59 PM 65.8°F18.8°C 59.9°F15.5°C 81% 0.9 mph WSW1.4 kmh WSW 2.9 mph4.7 kmh 30.08 in1018.6 mb 0.00 in0.0 mm 0.00 in0.0 mm 0.00 in0.0 mm
08:09 PM 65.5°F18.6°C 59.9°F15.5°C 82% 2.9 mph SW4.7 kmh SW 4.9 mph7.9 kmh 30.09 in1019.0 mb 0.00 in0.0 mm 0.00 in0.0 mm 0.00 in0.0 mm
08:19 PM 64.8°F18.2°C 59.5°F15.3°C 83% 0.9 mph SW1.4 kmh SW 4.0 mph6.4 kmh 30.09 in1019.0 mb 0.00 in0.0 mm 0.00 in0.0 mm 0.00 in0.0 mm
08:29 PM 64.2°F17.9°C 59.5°F15.3°C 85% 2.0 mph SW3.2 kmh SW 2.9 mph4.7 kmh 30.09 in1019.0 mb 0.00 in0.0 mm 0.00 in0.0 mm 0.00 in0.0 mm
08:39 PM 63.9°F17.7°C 59.0°F15.0°C 84% Calm Calm 2.9 mph4.7 kmh 30.10 in1019.3 mb 0.00 in0.0 mm 0.00 in0.0 mm 0.00 in0.0 mm
08:49 PM 63.1°F17.3°C 58.6°F14.8°C 85% 0.9 mph SW1.4 kmh SW 2.0 mph3.2 kmh 30.10 in1019.3 mb 0.00 in0.0 mm 0.00 in0.0 mm 0.00 in0.0 mm
08:59 PM 62.8°F17.1°C 58.5°F14.7°C 86% Calm Calm 2.0 mph3.2 kmh 30.10 in1019.3 mb 0.00 in0.0 mm 0.00 in0.0 mm 0.00 in0.0 mm
09:09 PM 62.4°F16.9°C 58.5°F14.7°C 87% Calm Calm 2.0 mph3.2 kmh 30.11 in1019.6 mb 0.00 in0.0 mm 0.00 in0.0 mm 0.00 in0.0 mm
09:19 PM 62.1°F16.7°C 58.1°F14.5°C 87% Calm Calm 0.9 mph1.4 kmh 30.11 in1019.6 mb 0.00 in0.0 mm 0.00 in0.0 mm 0.00 in0.0 mm
09:29 PM 61.5°F16.4°C 57.9°F14.4°C 88% Calm Calm 0.9 mph1.4 kmh 30.11 in1019.6 mb 0.00 in0.0 mm 0.00 in0.0 mm 0.00 in0.0 mm
09:39 PM 61.2°F16.2°C 57.6°F14.2°C 88% Calm Calm 0.9 mph1.4 kmh 30.11 in1019.6 mb 0.00 in0.0 mm 0.00 in0.0 mm 0.00 in0.0 mm
09:50 PM 61.2°F16.2°C 58.3°F14.6°C 90% 0.9 mph SW1.4 kmh SW 4.0 mph6.4 kmh 30.12 in1020.0 mb 0.00 in0.0 mm 0.00 in0.0 mm 0.00 in0.0 mm
10:00 PM 60.8°F16.0°C 57.9°F14.4°C 90% Calm Calm -- 30.11 in1019.6 mb 0.00 in0.0 mm 0.00 in0.0 mm 0.00 in0.0 mm
10:10 PM 60.4°F15.8°C 57.6°F14.2°C 90% Calm Calm -- 30.11 in1019.6 mb 0.00 in0.0 mm 0.00 in0.0 mm 0.00 in0.0 mm
10:20 PM 60.1°F15.6°C 57.2°F14.0°C 90% Calm Calm -- 30.12 in1020.0 mb 0.00 in0.0 mm 0.00 in0.0 mm 0.00 in0.0 mm
10:30 PM 59.7°F15.4°C 57.0°F13.9°C 91% Calm Calm 2.0 mph3.2 kmh 30.12 in1020.0 mb 0.00 in0.0 mm 0.00 in0.0 mm 0.00 in0.0 mm
10:40 PM 59.7°F15.4°C 57.0°F13.9°C 91% Calm Calm 0.9 mph1.4 kmh 30.12 in1020.0 mb 0.00 in0.0 mm 0.00 in0.0 mm 0.00 in0.0 mm
10:50 PM 59.4°F15.2°C 56.7°F13.7°C 91% Calm Calm 2.0 mph3.2 kmh 30.12 in1020.0 mb 0.00 in0.0 mm 0.00 in0.0 mm 0.00 in0.0 mm
11:01 PM 59.2°F15.1°C 56.5°F13.6°C 91% Calm Calm 2.0 mph3.2 kmh 30.12 in1020.0 mb 0.00 in0.0 mm 0.00 in0.0 mm 0.00 in0.0 mm
11:11 PM 59.2°F15.1°C 56.8°F13.8°C 92% 0.9 mph SW1.4 kmh SW 2.0 mph3.2 kmh 30.12 in1020.0 mb 0.00 in0.0 mm 0.00 in0.0 mm 0.00 in0.0 mm
11:21 PM 58.8°F14.9°C 56.5°F13.6°C 92% Calm Calm 2.0 mph3.2 kmh 30.12 in1020.0 mb 0.00 in0.0 mm 0.00 in0.0 mm 0.00 in0.0 mm
11:31 PM 58.8°F14.9°C 56.5°F13.6°C 92% Calm Calm -- 30.12 in1020.0 mb 0.00 in0.0 mm 0.00 in0.0 mm 0.00 in0.0 mm
11:41 PM 58.5°F14.7°C 56.1°F13.4°C 92% Calm Calm 2.0 mph3.2 kmh 30.12 in1020.0 mb 0.00 in0.0 mm 0.00 in0.0 mm 0.00 in0.0 mm
11:51 PM 58.6°F14.8°C 56.3°F13.5°C 92% Calm Calm 0.9 mph1.4 kmh 30.12 in1020.0 mb 0.00 in0.0 mm 0.00 in0.0 mm 0.00 in0.0 mm